Hud, Sweden

3:49 AM CEST on July 02, 2015 (GMT +0200)
SSRS Fjallbacka | | Change Station
CLOSE
Current Station
Personal Weather Station
Location: Fjällbacka, VäSTRA GöTALAND
Elevation: 13 ft
Nearby Weather Stations

Elev 13 ft 58.60 °N, 11.28 °E | Updated 2 seconds ago

Clear
Clear
58.5 °F
Feels Like 58.5 °F
N
2.2
Wind Variable Wind from SE
Gusts 2.2 mph

Today
High -- | Low -- °F
--% Chance of Precip.
Yesterday
High -- | Low -- °F
Precip. -- in
4:11 AM 10:24 PM
Full, 100% visible
Pressure 30.33 in
Visibility 6.2 miles
Clouds
Dew Point 48 °F
Humidity 69%
Rainfall 0.00 in
Snow Depth Not available.
UV Not available.
Pollen Not available.
Air Quality Not available.
Flu Activity Not available.
METAR ESIB 020120Z AUTO 16002KT 9999 NCD 13/12 Q1027

More Conditions Fewer Conditions

Pressure 30.33 in
Visibility 6.2 miles
Clouds
Dew Point 48 °F
Humidity 69%
Rainfall 0.00 in
Snow Depth Not available.
UV Not available.
Pollen Not available.
Air Quality Not available.
Flu Activity Not available.
METAR ESIB 020120Z AUTO 16002KT 9999 NCD 13/12 Q1027

More Conditions Fewer Conditions

10-Day Weather Forecast

×

Almanac

Astronomy

Jul. 02, 2015 Rise Set
Actual Time
Civil Twilight
Nautical Twilight
Astronomical Twilight
Moon
Length of Visible Light
Length of Day
Tomorrow will be .
, % of the Moon is Illuminated

Today's Extremes

Country Highs Country Lows

Community

WunderPhotos

Upload Photos

1,834,376 photos uploaded!

WunderBlogs® & News

Nearby

Air Quality

  Air Quality AQ Index Pollutant
Not available.

Snow Depth

Station Depth Elevation

Earthquake Activity

City Distance Mag. Time & Date
Minimum magnitude displayed is 2.5.

Coastal Water Temperatures

Place Temperature

Stations

Nearby Weather Stations

Station Location Temp. Windchill Dew Point Humidity Wind Precip. Elev Updated Type